sensor_id;sensor_type;location;lat;lon;timestamp;P1;durP1;ratioP1;P2;durP2;ratioP2
68825;SDS011;55841;53.392;10.086;2022-11-30T00:00:13;60.17;;;21.15;;
68825;SDS011;55841;53.392;10.086;2022-11-30T00:02:39;62.13;;;20.05;;
68825;SDS011;55841;53.392;10.086;2022-11-30T00:05:05;59.20;;;21.35;;
68825;SDS011;55841;53.392;10.086;2022-11-30T00:07:30;56.25;;;20.52;;
68825;SDS011;55841;53.392;10.086;2022-11-30T00:09:57;61.97;;;23.38;;
68825;SDS011;55841;53.392;10.086;2022-11-30T00:12:22;65.18;;;23.13;;
68825;SDS011;55841;53.392;10.086;2022-11-30T00:14:48;56.63;;;20.45;;
68825;SDS011;55841;53.392;10.086;2022-11-30T00:17:13;70.90;;;22.98;;
68825;SDS011;55841;53.392;10.086;2022-11-30T00:19:39;61.42;;;21.55;;
68825;SDS011;55841;53.392;10.086;2022-11-30T00:22:04;55.58;;;20.45;;
68825;SDS011;55841;53.392;10.086;2022-11-30T00:24:30;57.20;;;20.92;;
68825;SDS011;55841;53.392;10.086;2022-11-30T00:26:55;62.67;;;21.48;;
68825;SDS011;55841;53.392;10.086;2022-11-30T00:29:21;56.90;;;20.17;;
68825;SDS011;55841;53.392;10.086;2022-11-30T00:31:46;63.85;;;21.00;;
68825;SDS011;55841;53.392;10.086;2022-11-30T00:34:12;56.05;;;22.13;;
68825;SDS011;55841;53.392;10.086;2022-11-30T00:36:37;55.63;;;21.10;;
68825;SDS011;55841;53.392;10.086;2022-11-30T00:39:03;53.45;;;20.05;;
68825;SDS011;55841;53.392;10.086;2022-11-30T00:41:28;52.35;;;21.08;;
68825;SDS011;55841;53.392;10.086;2022-11-30T00:43:54;55.03;;;20.38;;
68825;SDS011;55841;53.392;10.086;2022-11-30T00:46:19;63.10;;;22.10;;
68825;SDS011;55841;53.392;10.086;2022-11-30T00:48:45;56.92;;;21.08;;
68825;SDS011;55841;53.392;10.086;2022-11-30T00:51:10;54.17;;;19.95;;
68825;SDS011;55841;53.392;10.086;2022-11-30T00:53:37;54.47;;;19.25;;
68825;SDS011;55841;53.392;10.086;2022-11-30T00:56:03;56.80;;;20.17;;
68825;SDS011;55841;53.392;10.086;2022-11-30T00:58:29;52.03;;;20.13;;
68825;SDS011;55841;53.392;10.086;2022-11-30T01:00:54;59.47;;;20.35;;
68825;SDS011;55841;53.392;10.086;2022-11-30T01:03:20;56.70;;;21.20;;
68825;SDS011;55841;53.392;10.086;2022-11-30T01:05:45;61.80;;;22.58;;
68825;SDS011;55841;53.392;10.086;2022-11-30T01:08:11;59.45;;;21.08;;
68825;SDS011;55841;53.392;10.086;2022-11-30T01:10:38;62.38;;;21.90;;
68825;SDS011;55841;53.392;10.086;2022-11-30T01:13:05;57.22;;;20.02;;
68825;SDS011;55841;53.392;10.086;2022-11-30T01:15:35;54.33;;;20.85;;
68825;SDS011;55841;53.392;10.086;2022-11-30T01:18:07;60.25;;;20.73;;
68825;SDS011;55841;53.392;10.086;2022-11-30T01:20:32;57.45;;;21.30;;
68825;SDS011;55841;53.392;10.086;2022-11-30T01:22:58;53.03;;;20.42;;
68825;SDS011;55841;53.392;10.086;2022-11-30T01:25:23;57.28;;;19.55;;
68825;SDS011;55841;53.392;10.086;2022-11-30T01:27:49;55.55;;;20.90;;
68825;SDS011;55841;53.392;10.086;2022-11-30T01:30:15;61.35;;;21.35;;
68825;SDS011;55841;53.392;10.086;2022-11-30T01:37:33;49.55;;;19.70;;
68825;SDS011;55841;53.392;10.086;2022-11-30T01:39:59;54.83;;;19.63;;
68825;SDS011;55841;53.392;10.086;2022-11-30T01:42:24;56.20;;;19.48;;
68825;SDS011;55841;53.392;10.086;2022-11-30T01:47:19;60.10;;;20.38;;
68825;SDS011;55841;53.392;10.086;2022-11-30T01:49:52;56.00;;;21.13;;
68825;SDS011;55841;53.392;10.086;2022-11-30T01:52:31;57.30;;;20.50;;
68825;SDS011;55841;53.392;10.086;2022-11-30T01:55:13;55.90;;;19.73;;
68825;SDS011;55841;53.392;10.086;2022-11-30T01:57:46;58.53;;;23.02;;
68825;SDS011;55841;53.392;10.086;2022-11-30T02:00:16;58.25;;;20.38;;
68825;SDS011;55841;53.392;10.086;2022-11-30T02:02:46;49.15;;;18.70;;
68825;SDS011;55841;53.392;10.086;2022-11-30T02:05:14;54.50;;;21.73;;
68825;SDS011;55841;53.392;10.086;2022-11-30T02:07:41;54.80;;;20.90;;
68825;SDS011;55841;53.392;10.086;2022-11-30T02:10:11;57.13;;;20.00;;
68825;SDS011;55841;53.392;10.086;2022-11-30T02:12:40;61.45;;;20.75;;
68825;SDS011;55841;53.392;10.086;2022-11-30T02:15:38;61.00;;;22.35;;
68825;SDS011;55841;53.392;10.086;2022-11-30T02:18:11;58.35;;;20.58;;
68825;SDS011;55841;53.392;10.086;2022-11-30T02:20:42;54.60;;;21.02;;
68825;SDS011;55841;53.392;10.086;2022-11-30T02:23:21;57.55;;;19.88;;
68825;SDS011;55841;53.392;10.086;2022-11-30T02:31:56;53.90;;;20.10;;
68825;SDS011;55841;53.392;10.086;2022-11-30T02:34:37;56.03;;;21.00;;
68825;SDS011;55841;53.392;10.086;2022-11-30T02:37:06;59.78;;;22.08;;
68825;SDS011;55841;53.392;10.086;2022-11-30T02:39:33;55.38;;;21.40;;
68825;SDS011;55841;53.392;10.086;2022-11-30T02:41:59;62.50;;;21.85;;
68825;SDS011;55841;53.392;10.086;2022-11-30T02:44:25;57.42;;;20.70;;
68825;SDS011;55841;53.392;10.086;2022-11-30T02:49:30;60.67;;;21.15;;
68825;SDS011;55841;53.392;10.086;2022-11-30T02:52:05;65.85;;;21.95;;
68825;SDS011;55841;53.392;10.086;2022-11-30T02:54:34;62.30;;;22.83;;
68825;SDS011;55841;53.392;10.086;2022-11-30T02:56:59;57.70;;;21.13;;
68825;SDS011;55841;53.392;10.086;2022-11-30T02:59:25;59.70;;;20.98;;
68825;SDS011;55841;53.392;10.086;2022-11-30T03:01:51;58.35;;;21.20;;
68825;SDS011;55841;53.392;10.086;2022-11-30T03:04:16;63.35;;;22.17;;
68825;SDS011;55841;53.392;10.086;2022-11-30T03:06:42;63.83;;;21.73;;
68825;SDS011;55841;53.392;10.086;2022-11-30T03:09:07;62.80;;;22.50;;
68825;SDS011;55841;53.392;10.086;2022-11-30T03:11:33;64.22;;;21.95;;
68825;SDS011;55841;53.392;10.086;2022-11-30T03:13:58;67.63;;;23.02;;
68825;SDS011;55841;53.392;10.086;2022-11-30T03:16:24;58.58;;;21.20;;
68825;SDS011;55841;53.392;10.086;2022-11-30T03:18:49;63.75;;;22.75;;
68825;SDS011;55841;53.392;10.086;2022-11-30T03:21:15;60.88;;;21.05;;
68825;SDS011;55841;53.392;10.086;2022-11-30T03:23:40;62.80;;;21.75;;
68825;SDS011;55841;53.392;10.086;2022-11-30T03:26:06;65.88;;;22.10;;
68825;SDS011;55841;53.392;10.086;2022-11-30T03:28:32;71.93;;;23.38;;
68825;SDS011;55841;53.392;10.086;2022-11-30T03:30:58;65.15;;;23.27;;
68825;SDS011;55841;53.392;10.086;2022-11-30T03:33:24;59.97;;;22.25;;
68825;SDS011;55841;53.392;10.086;2022-11-30T03:35:59;65.25;;;22.13;;
68825;SDS011;55841;53.392;10.086;2022-11-30T03:38:29;69.68;;;23.08;;
68825;SDS011;55841;53.392;10.086;2022-11-30T03:40:58;62.67;;;21.70;;
68825;SDS011;55841;53.392;10.086;2022-11-30T03:43:28;69.72;;;23.60;;
68825;SDS011;55841;53.392;10.086;2022-11-30T03:45:54;62.33;;;23.13;;
68825;SDS011;55841;53.392;10.086;2022-11-30T03:48:20;78.40;;;23.55;;
68825;SDS011;55841;53.392;10.086;2022-11-30T03:50:46;67.40;;;23.05;;
68825;SDS011;55841;53.392;10.086;2022-11-30T03:53:12;73.38;;;25.10;;
68825;SDS011;55841;53.392;10.086;2022-11-30T03:55:37;65.90;;;23.85;;
68825;SDS011;55841;53.392;10.086;2022-11-30T03:58:03;65.50;;;22.27;;
68825;SDS011;55841;53.392;10.086;2022-11-30T04:00:28;67.10;;;23.35;;
68825;SDS011;55841;53.392;10.086;2022-11-30T04:02:54;66.28;;;23.17;;
68825;SDS011;55841;53.392;10.086;2022-11-30T04:05:19;70.00;;;23.73;;
68825;SDS011;55841;53.392;10.086;2022-11-30T04:07:45;61.65;;;21.40;;
68825;SDS011;55841;53.392;10.086;2022-11-30T04:10:10;61.25;;;22.17;;
68825;SDS011;55841;53.392;10.086;2022-11-30T04:12:36;62.85;;;22.63;;
68825;SDS011;55841;53.392;10.086;2022-11-30T04:15:01;68.65;;;23.23;;
68825;SDS011;55841;53.392;10.086;2022-11-30T04:17:27;69.28;;;23.98;;
68825;SDS011;55841;53.392;10.086;2022-11-30T04:19:53;69.30;;;22.33;;
68825;SDS011;55841;53.392;10.086;2022-11-30T04:22:18;63.35;;;22.30;;
68825;SDS011;55841;53.392;10.086;2022-11-30T04:24:43;67.68;;;24.38;;
68825;SDS011;55841;53.392;10.086;2022-11-30T04:27:09;62.80;;;22.88;;
68825;SDS011;55841;53.392;10.086;2022-11-30T04:29:34;70.07;;;24.52;;
68825;SDS011;55841;53.392;10.086;2022-11-30T04:32:00;68.72;;;22.65;;
68825;SDS011;55841;53.392;10.086;2022-11-30T04:34:25;66.20;;;23.55;;
68825;SDS011;55841;53.392;10.086;2022-11-30T04:36:51;75.43;;;24.52;;
68825;SDS011;55841;53.392;10.086;2022-11-30T04:39:16;74.10;;;24.00;;
68825;SDS011;55841;53.392;10.086;2022-11-30T04:41:42;63.72;;;22.60;;
68825;SDS011;55841;53.392;10.086;2022-11-30T04:44:07;61.42;;;21.23;;
68825;SDS011;55841;53.392;10.086;2022-11-30T04:46:33;63.15;;;21.63;;
68825;SDS011;55841;53.392;10.086;2022-11-30T04:48:59;65.28;;;22.00;;
68825;SDS011;55841;53.392;10.086;2022-11-30T04:51:24;61.40;;;21.05;;
68825;SDS011;55841;53.392;10.086;2022-11-30T04:53:49;58.90;;;21.10;;
68825;SDS011;55841;53.392;10.086;2022-11-30T04:56:15;65.88;;;20.90;;
68825;SDS011;55841;53.392;10.086;2022-11-30T04:58:40;57.40;;;22.67;;
68825;SDS011;55841;53.392;10.086;2022-11-30T05:01:06;62.55;;;21.13;;
68825;SDS011;55841;53.392;10.086;2022-11-30T05:03:32;62.97;;;21.08;;
68825;SDS011;55841;53.392;10.086;2022-11-30T05:05:57;59.20;;;20.38;;
68825;SDS011;55841;53.392;10.086;2022-11-30T05:08:23;60.00;;;21.80;;
68825;SDS011;55841;53.392;10.086;2022-11-30T05:10:52;65.05;;;21.33;;
68825;SDS011;55841;53.392;10.086;2022-11-30T05:13:19;60.75;;;21.85;;
68825;SDS011;55841;53.392;10.086;2022-11-30T05:15:45;66.68;;;22.00;;
68825;SDS011;55841;53.392;10.086;2022-11-30T05:18:11;60.67;;;21.15;;
68825;SDS011;55841;53.392;10.086;2022-11-30T05:20:36;57.72;;;20.45;;
68825;SDS011;55841;53.392;10.086;2022-11-30T05:23:02;59.15;;;20.55;;
68825;SDS011;55841;53.392;10.086;2022-11-30T05:25:27;63.03;;;22.85;;
68825;SDS011;55841;53.392;10.086;2022-11-30T05:27:53;64.90;;;21.77;;
68825;SDS011;55841;53.392;10.086;2022-11-30T05:30:18;58.38;;;19.92;;
68825;SDS011;55841;53.392;10.086;2022-11-30T05:32:44;58.35;;;20.20;;
68825;SDS011;55841;53.392;10.086;2022-11-30T05:35:10;57.90;;;20.15;;
68825;SDS011;55841;53.392;10.086;2022-11-30T05:37:35;55.33;;;19.95;;
68825;SDS011;55841;53.392;10.086;2022-11-30T05:40:01;57.15;;;19.42;;
68825;SDS011;55841;53.392;10.086;2022-11-30T05:42:26;56.05;;;20.63;;
68825;SDS011;55841;53.392;10.086;2022-11-30T05:44:52;60.03;;;20.38;;
68825;SDS011;55841;53.392;10.086;2022-11-30T05:47:17;59.20;;;20.48;;
68825;SDS011;55841;53.392;10.086;2022-11-30T05:49:43;59.08;;;20.85;;
68825;SDS011;55841;53.392;10.086;2022-11-30T05:52:08;57.70;;;18.73;;
68825;SDS011;55841;53.392;10.086;2022-11-30T05:54:34;62.22;;;20.33;;
68825;SDS011;55841;53.392;10.086;2022-11-30T05:57:00;59.70;;;19.83;;
68825;SDS011;55841;53.392;10.086;2022-11-30T05:59:25;57.45;;;19.10;;
68825;SDS011;55841;53.392;10.086;2022-11-30T06:01:51;56.92;;;20.15;;
68825;SDS011;55841;53.392;10.086;2022-11-30T06:04:16;53.88;;;18.95;;
68825;SDS011;55841;53.392;10.086;2022-11-30T06:06:42;53.25;;;18.63;;
68825;SDS011;55841;53.392;10.086;2022-11-30T06:09:07;56.35;;;19.70;;
68825;SDS011;55841;53.392;10.086;2022-11-30T06:11:33;52.30;;;19.10;;
68825;SDS011;55841;53.392;10.086;2022-11-30T06:13:58;56.47;;;20.85;;
68825;SDS011;55841;53.392;10.086;2022-11-30T06:16:24;59.20;;;18.73;;
68825;SDS011;55841;53.392;10.086;2022-11-30T06:18:50;59.45;;;18.98;;
68825;SDS011;55841;53.392;10.086;2022-11-30T06:21:15;53.33;;;18.27;;
68825;SDS011;55841;53.392;10.086;2022-11-30T06:23:40;51.42;;;19.52;;
68825;SDS011;55841;53.392;10.086;2022-11-30T06:26:07;50.80;;;17.83;;
68825;SDS011;55841;53.392;10.086;2022-11-30T06:28:34;50.13;;;17.80;;
68825;SDS011;55841;53.392;10.086;2022-11-30T06:31:01;49.28;;;17.95;;
68825;SDS011;55841;53.392;10.086;2022-11-30T06:33:28;52.42;;;18.13;;
68825;SDS011;55841;53.392;10.086;2022-11-30T06:35:54;48.03;;;19.38;;
68825;SDS011;55841;53.392;10.086;2022-11-30T06:38:20;52.22;;;17.35;;
68825;SDS011;55841;53.392;10.086;2022-11-30T06:40:46;48.42;;;18.50;;
68825;SDS011;55841;53.392;10.086;2022-11-30T06:43:11;49.13;;;18.65;;
68825;SDS011;55841;53.392;10.086;2022-11-30T06:45:37;50.97;;;18.88;;
68825;SDS011;55841;53.392;10.086;2022-11-30T06:48:03;50.22;;;19.27;;
68825;SDS011;55841;53.392;10.086;2022-11-30T06:50:28;50.85;;;17.67;;
68825;SDS011;55841;53.392;10.086;2022-11-30T06:52:54;50.67;;;19.33;;
68825;SDS011;55841;53.392;10.086;2022-11-30T06:55:21;48.08;;;18.75;;
68825;SDS011;55841;53.392;10.086;2022-11-30T06:57:47;49.40;;;18.15;;
68825;SDS011;55841;53.392;10.086;2022-11-30T07:00:13;43.70;;;16.85;;
68825;SDS011;55841;53.392;10.086;2022-11-30T07:02:39;49.00;;;17.23;;
68825;SDS011;55841;53.392;10.086;2022-11-30T07:05:04;45.20;;;17.50;;
68825;SDS011;55841;53.392;10.086;2022-11-30T07:07:30;46.97;;;16.88;;
68825;SDS011;55841;53.392;10.086;2022-11-30T07:09:56;47.38;;;16.77;;
68825;SDS011;55841;53.392;10.086;2022-11-30T07:12:22;42.40;;;16.73;;
68825;SDS011;55841;53.392;10.086;2022-11-30T07:14:49;47.45;;;17.27;;
68825;SDS011;55841;53.392;10.086;2022-11-30T07:17:14;42.05;;;16.17;;
68825;SDS011;55841;53.392;10.086;2022-11-30T07:19:40;46.42;;;16.73;;
68825;SDS011;55841;53.392;10.086;2022-11-30T07:22:05;41.05;;;16.48;;
68825;SDS011;55841;53.392;10.086;2022-11-30T07:24:30;40.92;;;15.45;;
68825;SDS011;55841;53.392;10.086;2022-11-30T07:26:59;38.72;;;15.73;;
68825;SDS011;55841;53.392;10.086;2022-11-30T07:29:26;44.75;;;17.13;;
68825;SDS011;55841;53.392;10.086;2022-11-30T07:31:52;39.50;;;15.18;;
68825;SDS011;55841;53.392;10.086;2022-11-30T07:34:18;40.47;;;15.50;;
68825;SDS011;55841;53.392;10.086;2022-11-30T07:36:46;39.80;;;15.55;;
68825;SDS011;55841;53.392;10.086;2022-11-30T07:39:12;34.78;;;14.68;;
68825;SDS011;55841;53.392;10.086;2022-11-30T07:41:39;38.20;;;14.55;;
68825;SDS011;55841;53.392;10.086;2022-11-30T07:44:05;42.25;;;15.32;;
68825;SDS011;55841;53.392;10.086;2022-11-30T07:46:32;36.70;;;14.52;;
68825;SDS011;55841;53.392;10.086;2022-11-30T07:48:58;39.97;;;16.00;;
68825;SDS011;55841;53.392;10.086;2022-11-30T07:51:23;38.40;;;14.27;;
68825;SDS011;55841;53.392;10.086;2022-11-30T07:53:49;42.60;;;16.38;;
68825;SDS011;55841;53.392;10.086;2022-11-30T07:56:16;44.83;;;15.00;;
68825;SDS011;55841;53.392;10.086;2022-11-30T07:58:42;34.38;;;14.45;;
68825;SDS011;55841;53.392;10.086;2022-11-30T08:01:09;39.03;;;14.88;;
68825;SDS011;55841;53.392;10.086;2022-11-30T08:03:37;38.72;;;14.60;;
68825;SDS011;55841;53.392;10.086;2022-11-30T08:06:04;37.97;;;14.95;;
68825;SDS011;55841;53.392;10.086;2022-11-30T08:08:35;39.95;;;16.23;;
68825;SDS011;55841;53.392;10.086;2022-11-30T08:13:31;33.15;;;13.43;;
68825;SDS011;55841;53.392;10.086;2022-11-30T08:16:04;36.92;;;14.82;;
68825;SDS011;55841;53.392;10.086;2022-11-30T08:18:34;38.83;;;14.60;;
68825;SDS011;55841;53.392;10.086;2022-11-30T08:21:01;37.40;;;13.70;;
68825;SDS011;55841;53.392;10.086;2022-11-30T08:23:32;38.13;;;13.73;;
68825;SDS011;55841;53.392;10.086;2022-11-30T08:26:05;35.90;;;14.63;;
68825;SDS011;55841;53.392;10.086;2022-11-30T08:28:34;35.47;;;13.95;;
68825;SDS011;55841;53.392;10.086;2022-11-30T08:31:04;36.40;;;13.88;;
68825;SDS011;55841;53.392;10.086;2022-11-30T08:33:32;35.70;;;14.23;;
68825;SDS011;55841;53.392;10.086;2022-11-30T08:36:05;34.30;;;13.80;;
68825;SDS011;55841;53.392;10.086;2022-11-30T08:38:34;38.03;;;13.82;;
68825;SDS011;55841;53.392;10.086;2022-11-30T08:41:01;37.10;;;13.70;;
68825;SDS011;55841;53.392;10.086;2022-11-30T08:43:27;40.13;;;16.35;;
68825;SDS011;55841;53.392;10.086;2022-11-30T08:45:52;36.65;;;15.75;;
68825;SDS011;55841;53.392;10.086;2022-11-30T08:48:18;37.10;;;14.15;;
68825;SDS011;55841;53.392;10.086;2022-11-30T08:50:44;37.65;;;15.07;;
68825;SDS011;55841;53.392;10.086;2022-11-30T08:53:09;35.58;;;13.77;;
68825;SDS011;55841;53.392;10.086;2022-11-30T08:55:35;37.95;;;14.52;;
68825;SDS011;55841;53.392;10.086;2022-11-30T08:58:00;39.85;;;14.15;;
68825;SDS011;55841;53.392;10.086;2022-11-30T09:00:29;38.33;;;14.57;;
68825;SDS011;55841;53.392;10.086;2022-11-30T09:02:55;40.63;;;15.02;;
68825;SDS011;55841;53.392;10.086;2022-11-30T09:05:20;39.83;;;15.57;;
68825;SDS011;55841;53.392;10.086;2022-11-30T09:07:46;39.17;;;14.95;;
68825;SDS011;55841;53.392;10.086;2022-11-30T09:10:12;38.55;;;14.68;;
68825;SDS011;55841;53.392;10.086;2022-11-30T09:12:38;48.00;;;16.20;;
68825;SDS011;55841;53.392;10.086;2022-11-30T09:15:04;45.47;;;16.70;;
68825;SDS011;55841;53.392;10.086;2022-11-30T09:17:31;52.13;;;18.55;;
68825;SDS011;55841;53.392;10.086;2022-11-30T09:19:57;55.08;;;20.00;;
68825;SDS011;55841;53.392;10.086;2022-11-30T09:22:22;48.83;;;18.52;;
68825;SDS011;55841;53.392;10.086;2022-11-30T09:24:48;58.33;;;18.70;;
68825;SDS011;55841;53.392;10.086;2022-11-30T09:27:13;49.58;;;17.52;;
68825;SDS011;55841;53.392;10.086;2022-11-30T09:29:39;56.65;;;17.95;;
68825;SDS011;55841;53.392;10.086;2022-11-30T09:32:04;51.70;;;18.63;;
68825;SDS011;55841;53.392;10.086;2022-11-30T09:34:30;53.22;;;17.17;;
68825;SDS011;55841;53.392;10.086;2022-11-30T09:36:58;43.17;;;15.38;;
68825;SDS011;55841;53.392;10.086;2022-11-30T09:39:23;49.22;;;16.98;;
68825;SDS011;55841;53.392;10.086;2022-11-30T09:44:55;48.65;;;17.30;;
68825;SDS011;55841;53.392;10.086;2022-11-30T09:50:17;51.13;;;18.35;;
68825;SDS011;55841;53.392;10.086;2022-11-30T09:52:49;55.70;;;19.73;;
68825;SDS011;55841;53.392;10.086;2022-11-30T09:58:04;50.75;;;16.25;;
68825;SDS011;55841;53.392;10.086;2022-11-30T10:00:32;55.58;;;18.38;;
68825;SDS011;55841;53.392;10.086;2022-11-30T10:03:00;50.70;;;18.48;;
68825;SDS011;55841;53.392;10.086;2022-11-30T10:05:41;53.00;;;18.90;;
68825;SDS011;55841;53.392;10.086;2022-11-30T10:14:03;49.65;;;16.92;;
68825;SDS011;55841;53.392;10.086;2022-11-30T10:16:44;48.97;;;17.13;;
68825;SDS011;55841;53.392;10.086;2022-11-30T10:27:15;56.05;;;19.15;;
68825;SDS011;55841;53.392;10.086;2022-11-30T10:29:46;48.90;;;17.65;;
68825;SDS011;55841;53.392;10.086;2022-11-30T10:32:14;54.03;;;17.83;;
68825;SDS011;55841;53.392;10.086;2022-11-30T10:34:41;53.38;;;18.63;;
68825;SDS011;55841;53.392;10.086;2022-11-30T10:37:11;53.33;;;19.92;;
68825;SDS011;55841;53.392;10.086;2022-11-30T10:45:16;49.45;;;18.23;;
68825;SDS011;55841;53.392;10.086;2022-11-30T10:48:03;47.83;;;17.92;;
68825;SDS011;55841;53.392;10.086;2022-11-30T10:50:34;46.58;;;16.63;;
68825;SDS011;55841;53.392;10.086;2022-11-30T10:52:59;50.67;;;19.13;;
68825;SDS011;55841;53.392;10.086;2022-11-30T10:55:29;51.33;;;19.13;;
68825;SDS011;55841;53.392;10.086;2022-11-30T10:58:11;49.58;;;18.77;;
68825;SDS011;55841;53.392;10.086;2022-11-30T11:00:49;42.15;;;17.45;;
68825;SDS011;55841;53.392;10.086;2022-11-30T11:03:27;49.22;;;18.90;;
68825;SDS011;55841;53.392;10.086;2022-11-30T11:08:36;45.08;;;15.73;;
68825;SDS011;55841;53.392;10.086;2022-11-30T11:11:02;51.90;;;17.75;;
68825;SDS011;55841;53.392;10.086;2022-11-30T11:13:36;43.88;;;16.38;;
68825;SDS011;55841;53.392;10.086;2022-11-30T11:16:08;47.42;;;17.52;;
68825;SDS011;55841;53.392;10.086;2022-11-30T11:18:36;42.97;;;16.00;;
68825;SDS011;55841;53.392;10.086;2022-11-30T11:21:23;38.88;;;15.82;;
68825;SDS011;55841;53.392;10.086;2022-11-30T11:23:50;41.15;;;16.35;;
68825;SDS011;55841;53.392;10.086;2022-11-30T11:28:48;44.28;;;18.50;;
68825;SDS011;55841;53.392;10.086;2022-11-30T11:34:00;46.42;;;17.10;;
68825;SDS011;55841;53.392;10.086;2022-11-30T11:36:27;47.80;;;16.98;;
68825;SDS011;55841;53.392;10.086;2022-11-30T11:38:54;51.35;;;18.10;;
68825;SDS011;55841;53.392;10.086;2022-11-30T11:41:30;51.38;;;17.65;;
68825;SDS011;55841;53.392;10.086;2022-11-30T11:44:01;53.15;;;19.15;;
68825;SDS011;55841;53.392;10.086;2022-11-30T11:46:58;53.20;;;19.83;;
68825;SDS011;55841;53.392;10.086;2022-11-30T11:49:30;49.67;;;19.02;;
68825;SDS011;55841;53.392;10.086;2022-11-30T11:52:00;62.83;;;20.95;;
68825;SDS011;55841;53.392;10.086;2022-11-30T11:54:49;63.92;;;20.85;;
68825;SDS011;55841;53.392;10.086;2022-11-30T11:57:36;57.58;;;20.30;;
68825;SDS011;55841;53.392;10.086;2022-11-30T12:00:14;55.85;;;21.05;;
68825;SDS011;55841;53.392;10.086;2022-11-30T12:05:35;60.88;;;21.15;;
68825;SDS011;55841;53.392;10.086;2022-11-30T12:11:01;60.92;;;19.98;;
68825;SDS011;55841;53.392;10.086;2022-11-30T12:13:37;62.33;;;20.75;;
68825;SDS011;55841;53.392;10.086;2022-11-30T12:24:19;60.17;;;21.35;;
68825;SDS011;55841;53.392;10.086;2022-11-30T12:27:04;66.63;;;21.75;;
68825;SDS011;55841;53.392;10.086;2022-11-30T12:49:31;67.47;;;21.33;;
68825;SDS011;55841;53.392;10.086;2022-11-30T12:55:09;71.85;;;23.23;;
68825;SDS011;55841;53.392;10.086;2022-11-30T12:57:57;66.57;;;22.80;;
68825;SDS011;55841;53.392;10.086;2022-11-30T13:06:23;72.90;;;24.05;;
68825;SDS011;55841;53.392;10.086;2022-11-30T13:08:57;69.18;;;24.90;;
68825;SDS011;55841;53.392;10.086;2022-11-30T13:12:36;68.25;;;22.60;;
68825;SDS011;55841;53.392;10.086;2022-11-30T13:14:48;73.18;;;23.48;;
68825;SDS011;55841;53.392;10.086;2022-11-30T13:17:20;65.93;;;23.08;;
68825;SDS011;55841;53.392;10.086;2022-11-30T13:19:56;68.53;;;25.00;;
68825;SDS011;55841;53.392;10.086;2022-11-30T13:25:29;64.38;;;21.48;;
68825;SDS011;55841;53.392;10.086;2022-11-30T13:28:26;64.25;;;22.73;;
68825;SDS011;55841;53.392;10.086;2022-11-30T13:33:58;66.32;;;22.88;;
68825;SDS011;55841;53.392;10.086;2022-11-30T13:36:37;66.95;;;24.50;;
68825;SDS011;55841;53.392;10.086;2022-11-30T13:39:21;68.85;;;23.40;;
68825;SDS011;55841;53.392;10.086;2022-11-30T13:41:50;70.32;;;24.10;;
68825;SDS011;55841;53.392;10.086;2022-11-30T13:44:45;75.10;;;24.60;;
68825;SDS011;55841;53.392;10.086;2022-11-30T13:47:28;72.35;;;27.63;;
68825;SDS011;55841;53.392;10.086;2022-11-30T13:49:56;76.20;;;28.77;;
68825;SDS011;55841;53.392;10.086;2022-11-30T13:58:10;63.70;;;21.98;;
68825;SDS011;55841;53.392;10.086;2022-11-30T14:08:41;67.82;;;23.10;;
68825;SDS011;55841;53.392;10.086;2022-11-30T14:17:12;62.10;;;21.90;;
68825;SDS011;55841;53.392;10.086;2022-11-30T14:19:43;60.00;;;22.30;;
68825;SDS011;55841;53.392;10.086;2022-11-30T14:22:11;62.13;;;21.08;;
68825;SDS011;55841;53.392;10.086;2022-11-30T14:24:39;60.42;;;22.48;;
68825;SDS011;55841;53.392;10.086;2022-11-30T14:27:08;59.50;;;22.63;;
68825;SDS011;55841;53.392;10.086;2022-11-30T14:29:40;63.33;;;21.52;;
68825;SDS011;55841;53.392;10.086;2022-11-30T14:32:09;70.05;;;23.90;;
68825;SDS011;55841;53.392;10.086;2022-11-30T14:34:37;60.08;;;22.27;;
68825;SDS011;55841;53.392;10.086;2022-11-30T14:39:44;61.03;;;22.73;;
68825;SDS011;55841;53.392;10.086;2022-11-30T14:42:18;63.72;;;22.50;;
68825;SDS011;55841;53.392;10.086;2022-11-30T14:44:45;61.63;;;22.27;;
68825;SDS011;55841;53.392;10.086;2022-11-30T14:47:30;64.95;;;22.77;;
68825;SDS011;55841;53.392;10.086;2022-11-30T14:50:00;65.13;;;22.02;;
68825;SDS011;55841;53.392;10.086;2022-11-30T15:00:38;69.55;;;23.48;;
68825;SDS011;55841;53.392;10.086;2022-11-30T15:03:14;73.88;;;23.55;;
68825;SDS011;55841;53.392;10.086;2022-11-30T15:05:52;70.57;;;23.77;;
68825;SDS011;55841;53.392;10.086;2022-11-30T15:08:20;70.85;;;24.55;;
68825;SDS011;55841;53.392;10.086;2022-11-30T15:10:46;67.85;;;23.92;;
68825;SDS011;55841;53.392;10.086;2022-11-30T15:13:12;68.25;;;22.17;;
68825;SDS011;55841;53.392;10.086;2022-11-30T15:15:53;74.88;;;25.08;;
68825;SDS011;55841;53.392;10.086;2022-11-30T15:18:20;77.78;;;24.73;;
68825;SDS011;55841;53.392;10.086;2022-11-30T15:23:24;81.32;;;25.02;;
68825;SDS011;55841;53.392;10.086;2022-11-30T15:25:51;79.72;;;25.27;;
68825;SDS011;55841;53.392;10.086;2022-11-30T15:28:23;69.72;;;23.10;;
68825;SDS011;55841;53.392;10.086;2022-11-30T15:30:55;75.40;;;23.55;;
68825;SDS011;55841;53.392;10.086;2022-11-30T15:33:23;71.03;;;24.67;;
68825;SDS011;55841;53.392;10.086;2022-11-30T15:35:54;72.45;;;23.05;;
68825;SDS011;55841;53.392;10.086;2022-11-30T15:38:20;68.32;;;23.45;;
68825;SDS011;55841;53.392;10.086;2022-11-30T15:40:49;68.25;;;22.15;;
68825;SDS011;55841;53.392;10.086;2022-11-30T15:43:20;69.65;;;23.55;;
68825;SDS011;55841;53.392;10.086;2022-11-30T15:45:55;75.38;;;23.90;;
68825;SDS011;55841;53.392;10.086;2022-11-30T15:48:26;76.13;;;25.02;;
68825;SDS011;55841;53.392;10.086;2022-11-30T15:51:02;75.85;;;23.42;;
68825;SDS011;55841;53.392;10.086;2022-11-30T15:53:30;73.90;;;25.02;;
68825;SDS011;55841;53.392;10.086;2022-11-30T15:56:02;73.10;;;23.27;;
68825;SDS011;55841;53.392;10.086;2022-11-30T16:01:09;70.82;;;24.48;;
68825;SDS011;55841;53.392;10.086;2022-11-30T16:09:24;85.28;;;26.00;;
68825;SDS011;55841;53.392;10.086;2022-11-30T16:11:53;82.63;;;24.25;;
68825;SDS011;55841;53.392;10.086;2022-11-30T16:14:19;76.85;;;24.00;;
68825;SDS011;55841;53.392;10.086;2022-11-30T16:16:45;81.00;;;26.05;;
68825;SDS011;55841;53.392;10.086;2022-11-30T16:19:11;76.82;;;25.98;;
68825;SDS011;55841;53.392;10.086;2022-11-30T16:21:36;79.13;;;27.20;;
68825;SDS011;55841;53.392;10.086;2022-11-30T16:24:02;80.65;;;26.27;;
68825;SDS011;55841;53.392;10.086;2022-11-30T16:26:28;81.15;;;25.73;;
68825;SDS011;55841;53.392;10.086;2022-11-30T16:28:53;74.10;;;24.65;;
68825;SDS011;55841;53.392;10.086;2022-11-30T16:31:21;77.80;;;25.95;;
68825;SDS011;55841;53.392;10.086;2022-11-30T16:33:47;79.40;;;25.63;;
68825;SDS011;55841;53.392;10.086;2022-11-30T16:38:45;78.25;;;24.30;;
68825;SDS011;55841;53.392;10.086;2022-11-30T16:41:15;83.85;;;27.13;;
68825;SDS011;55841;53.392;10.086;2022-11-30T16:43:49;82.15;;;27.70;;